createdAt,value
2016-06-22T00:00:34.253Z,24.67
2016-06-22T00:01:34.258Z,24.7
2016-06-22T00:02:33.673Z,24.67
2016-06-22T00:03:33.680Z,24.74
2016-06-22T00:04:33.687Z,24.7
2016-06-22T00:05:34.304Z,24.66
2016-06-22T00:06:34.310Z,24.71
2016-06-22T00:07:34.917Z,24.74
2016-06-22T00:08:33.739Z,24.67
2016-06-22T00:09:34.936Z,24.69
2016-06-22T00:10:34.345Z,24.71
2016-06-22T00:11:34.353Z,24.61
2016-06-22T00:12:34.963Z,24.59
2016-06-22T00:13:34.377Z,24.69
2016-06-22T00:14:33.785Z,24.7
2016-06-22T00:15:33.800Z,24.63
2016-06-22T00:16:34.411Z,24.69
2016-06-22T00:17:33.818Z,24.71
2016-06-22T00:18:33.858Z,24.63
2016-06-22T00:19:33.855Z,24.7
2016-06-22T00:20:33.850Z,24.69
2016-06-22T00:21:33.867Z,24.69
2016-06-22T00:22:33.882Z,24.66
2016-06-22T00:23:34.494Z,24.66
2016-06-22T00:24:33.904Z,24.67
2016-06-22T00:25:34.501Z,24.77
2016-06-22T00:26:33.918Z,24.69
2016-06-22T00:27:33.955Z,24.67
2016-06-22T00:28:35.149Z,24.71
2016-06-22T00:29:35.156Z,24.7
2016-06-22T00:30:33.963Z,24.74
2016-06-22T00:31:33.966Z,24.74
2016-06-22T00:32:35.185Z,24.7
2016-06-22T00:33:35.213Z,24.74
2016-06-22T00:34:34.592Z,24.69
2016-06-22T00:35:34.646Z,24.59
2016-06-22T00:36:34.630Z,24.69
2016-06-22T00:37:35.228Z,24.66
2016-06-22T00:38:34.640Z,24.67
2016-06-22T00:39:34.652Z,24.69
2016-06-22T00:40:34.691Z,24.66
2016-06-22T00:41:34.672Z,24.58
2016-06-22T00:42:34.685Z,24.69
2016-06-22T00:43:35.300Z,24.75
2016-06-22T00:44:34.100Z,24.7
2016-06-22T00:45:34.114Z,24.55
2016-06-22T00:46:34.756Z,24.59
2016-06-22T00:47:35.330Z,24.58
2016-06-22T00:48:35.359Z,24.58
2016-06-22T00:49:34.164Z,24.59
2016-06-22T00:50:34.165Z,24.56
2016-06-22T00:51:35.377Z,24.63
2016-06-22T00:52:35.390Z,24.59
2016-06-22T00:53:34.792Z,24.59
2016-06-22T00:54:34.238Z,24.61
2016-06-22T00:55:34.818Z,24.58
2016-06-22T00:56:34.254Z,24.56
2016-06-22T00:57:34.852Z,24.55
2016-06-22T00:58:34.249Z,24.56
2016-06-22T00:59:34.875Z,24.71
2016-06-22T01:00:35.478Z,24.55
2016-06-22T01:01:34.875Z,24.58
2016-06-22T01:02:34.294Z,24.58
2016-06-22T01:03:35.541Z,24.55
2016-06-22T01:04:34.311Z,24.55
2016-06-22T01:05:34.926Z,24.56
2016-06-22T01:06:34.930Z,24.58
2016-06-22T01:07:34.958Z,24.58
2016-06-22T01:08:34.952Z,24.55
2016-06-22T01:09:34.977Z,24.56
2016-06-22T01:10:35.031Z,24.61
2016-06-22T01:11:34.988Z,24.56
2016-06-22T01:12:35.005Z,24.59
2016-06-22T01:13:34.423Z,24.59
2016-06-22T01:14:34.423Z,24.56
2016-06-22T01:15:35.627Z,24.55
2016-06-22T01:16:35.627Z,24.59
2016-06-22T01:17:35.058Z,24.59
2016-06-22T01:18:34.461Z,24.59
2016-06-22T01:19:34.466Z,24.58
2016-06-22T01:20:35.070Z,24.59
2016-06-22T01:21:34.490Z,24.51
2016-06-22T01:22:35.098Z,24.59
2016-06-22T01:23:35.115Z,24.59
2016-06-22T01:24:34.523Z,24.63
2016-06-22T01:25:34.532Z,24.61
2016-06-22T01:26:34.545Z,24.59
2016-06-22T01:27:34.568Z,24.55
2016-06-22T01:28:34.559Z,24.56
2016-06-22T01:29:35.180Z,24.59
2016-06-22T01:30:35.783Z,24.63
2016-06-22T01:31:35.792Z,24.61
2016-06-22T01:32:35.219Z,24.59
2016-06-22T01:33:34.618Z,24.54
2016-06-22T01:34:35.834Z,24.56
2016-06-22T01:35:35.851Z,24.55
2016-06-22T01:36:35.858Z,24.56
2016-06-22T01:37:35.843Z,24.59
2016-06-22T01:38:35.864Z,24.58
2016-06-22T01:39:35.291Z,24.49
2016-06-22T01:40:35.288Z,24.54
2016-06-22T01:41:34.698Z,24.52
2016-06-22T01:42:35.312Z,24.63
2016-06-22T01:43:35.317Z,24.58
2016-06-22T01:44:35.934Z,24.56
2016-06-22T01:45:35.946Z,24.49
2016-06-22T01:46:35.343Z,24.51
2016-06-22T01:47:35.385Z,24.52
2016-06-22T01:48:34.784Z,24.49
2016-06-22T01:49:34.782Z,24.56
2016-06-22T01:50:35.394Z,24.48
2016-06-22T01:51:34.808Z,24.58
2016-06-22T01:52:35.415Z,24.54
2016-06-22T01:53:36.026Z,24.61
2016-06-22T01:54:35.449Z,24.56
2016-06-22T01:55:35.451Z,24.52
2016-06-22T01:56:35.458Z,24.59
2016-06-22T01:57:35.464Z,24.55
2016-06-22T01:58:34.872Z,24.52
2016-06-22T01:59:34.880Z,24.51
2016-06-22T02:00:34.897Z,24.54
2016-06-22T02:01:36.104Z,24.52
2016-06-22T02:02:36.110Z,24.59
2016-06-22T02:03:36.130Z,24.58
2016-06-22T02:04:36.136Z,24.52
2016-06-22T02:05:35.546Z,24.49
2016-06-22T02:06:34.972Z,24.54
2016-06-22T02:07:35.558Z,24.54
2016-06-22T02:08:35.579Z,24.55
2016-06-22T02:09:36.194Z,24.52
2016-06-22T02:10:36.247Z,24.55
2016-06-22T02:11:35.615Z,24.58
2016-06-22T02:12:35.020Z,24.59
2016-06-22T02:13:36.248Z,24.55
2016-06-22T02:14:35.639Z,24.59
2016-06-22T02:15:35.060Z,24.52
2016-06-22T02:16:35.061Z,24.59
2016-06-22T02:17:36.271Z,24.52
2016-06-22T02:18:36.281Z,24.54
2016-06-22T02:19:36.290Z,24.54
2016-06-22T02:20:35.714Z,24.48
2016-06-22T02:21:35.720Z,24.58
2016-06-22T02:22:35.734Z,24.56
2016-06-22T02:23:35.739Z,24.55
2016-06-22T02:24:35.747Z,24.56
2016-06-22T02:25:36.347Z,24.59
2016-06-22T02:26:35.767Z,24.52
2016-06-22T02:27:35.775Z,24.55
2016-06-22T02:28:35.189Z,24.54
2016-06-22T02:29:35.203Z,24.55
2016-06-22T02:30:35.823Z,24.52
2016-06-22T02:31:35.819Z,24.55
2016-06-22T02:32:36.422Z,24.51
2016-06-22T02:33:35.247Z,24.52
2016-06-22T02:34:36.442Z,24.49
2016-06-22T02:35:35.860Z,24.49
2016-06-22T02:36:35.276Z,24.51
2016-06-22T02:37:35.879Z,24.52
2016-06-22T02:38:35.288Z,24.54
2016-06-22T02:39:36.514Z,24.52
2016-06-22T02:40:36.503Z,24.49
2016-06-22T02:41:35.330Z,24.54
2016-06-22T02:42:35.947Z,24.52
2016-06-22T02:43:35.338Z,24.54
2016-06-22T02:44:36.560Z,24.54
2016-06-22T02:45:35.379Z,24.54
2016-06-22T02:46:35.969Z,24.58
2016-06-22T02:47:35.994Z,24.54
2016-06-22T02:48:36.002Z,24.52
2016-06-22T02:49:36.006Z,24.56
2016-06-22T02:50:36.011Z,24.56
2016-06-22T02:51:36.033Z,24.54
2016-06-22T02:52:36.027Z,24.52
2016-06-22T02:53:35.448Z,24.51
2016-06-22T02:54:36.058Z,24.56
2016-06-22T02:55:36.658Z,24.51
2016-06-22T02:56:36.676Z,24.46
2016-06-22T02:57:36.678Z,24.45
2016-06-22T02:58:36.689Z,24.49
2016-06-22T02:59:35.509Z,24.54
2016-06-22T03:00:36.122Z,24.49
2016-06-22T03:01:36.721Z,24.52
2016-06-22T03:02:36.130Z,24.46
2016-06-22T03:03:35.550Z,24.54
2016-06-22T03:04:36.754Z,24.55
2016-06-22T03:05:35.580Z,24.52
2016-06-22T03:06:36.181Z,24.46
2016-06-22T03:07:35.594Z,24.54
2016-06-22T03:08:36.211Z,24.56
2016-06-22T03:09:35.617Z,24.55
2016-06-22T03:10:36.271Z,24.54
2016-06-22T03:11:35.633Z,24.56
2016-06-22T03:12:35.649Z,24.48
2016-06-22T03:13:36.251Z,24.59
2016-06-22T03:14:36.261Z,24.56
2016-06-22T03:15:36.274Z,24.56
2016-06-22T03:16:36.275Z,24.49
2016-06-22T03:17:36.893Z,24.51
2016-06-22T03:18:36.896Z,24.55
2016-06-22T03:19:36.302Z,24.56
2016-06-22T03:20:36.324Z,24.56
2016-06-22T03:21:36.331Z,24.48
2016-06-22T03:22:36.343Z,24.54
2016-06-22T03:23:35.780Z,24.54
2016-06-22T03:24:36.361Z,24.56
2016-06-22T03:25:36.973Z,24.55
2016-06-22T03:26:36.392Z,24.51
2016-06-22T03:27:37.012Z,24.49
2016-06-22T03:28:37.014Z,24.54
2016-06-22T03:29:37.014Z,24.54
2016-06-22T03:30:35.852Z,24.54
2016-06-22T03:31:35.842Z,24.55
2016-06-22T03:32:36.451Z,24.51
2016-06-22T03:33:37.062Z,24.54
2016-06-22T03:34:36.470Z,24.52
2016-06-22T03:35:36.484Z,24.59
2016-06-22T03:36:36.496Z,24.59
2016-06-22T03:37:36.497Z,24.52
2016-06-22T03:38:36.515Z,24.51
2016-06-22T03:39:36.521Z,24.51
2016-06-22T03:40:35.928Z,24.49
2016-06-22T03:41:36.548Z,24.52
2016-06-22T03:42:36.553Z,24.61
2016-06-22T03:43:35.957Z,24.51
2016-06-22T03:44:36.577Z,24.54
2016-06-22T03:45:37.193Z,24.52
2016-06-22T03:46:37.191Z,24.54
2016-06-22T03:47:36.609Z,24.52
2016-06-22T03:48:36.021Z,24.51
2016-06-22T03:49:37.222Z,24.55
2016-06-22T03:50:37.231Z,24.56
2016-06-22T03:51:36.065Z,24.55
2016-06-22T03:52:36.054Z,24.52
2016-06-22T03:53:37.273Z,24.52
2016-06-22T03:54:36.684Z,24.58
2016-06-22T03:55:36.693Z,24.55
2016-06-22T03:56:36.105Z,24.64
2016-06-22T03:57:36.709Z,24.59
2016-06-22T03:58:36.151Z,24.52
2016-06-22T03:59:36.741Z,24.52
2016-06-22T04:00:37.354Z,24.55
2016-06-22T04:01:37.363Z,24.64
2016-06-22T04:02:36.159Z,24.54
2016-06-22T04:03:36.784Z,24.54
2016-06-22T04:04:36.201Z,24.58
2016-06-22T04:05:36.206Z,24.63
2016-06-22T04:06:36.811Z,24.61
2016-06-22T04:07:36.215Z,24.54
2016-06-22T04:08:36.820Z,24.61
2016-06-22T04:09:37.445Z,24.59
2016-06-22T04:10:36.895Z,24.58
2016-06-22T04:11:36.870Z,24.56
2016-06-22T04:12:37.466Z,24.63
2016-06-22T04:13:36.875Z,24.61
2016-06-22T04:14:36.892Z,24.61
2016-06-22T04:15:36.899Z,24.61
2016-06-22T04:16:36.917Z,24.59
2016-06-22T04:17:37.516Z,24.59
2016-06-22T04:18:36.921Z,24.56
2016-06-22T04:19:36.932Z,24.56
2016-06-22T04:20:36.352Z,24.55
2016-06-22T04:21:36.960Z,24.58
2016-06-22T04:22:36.979Z,24.56
2016-06-22T04:23:37.591Z,24.66
2016-06-22T04:24:36.386Z,24.71
2016-06-22T04:25:36.401Z,24.69
2016-06-22T04:26:37.615Z,24.64
2016-06-22T04:27:37.617Z,24.61
2016-06-22T04:28:36.438Z,24.74
2016-06-22T04:29:36.457Z,24.74
2016-06-22T04:30:36.458Z,24.67
2016-06-22T04:31:36.465Z,24.71
2016-06-22T04:32:36.483Z,24.75
2016-06-22T04:33:37.079Z,24.71
2016-06-22T04:34:37.679Z,24.61
2016-06-22T04:35:37.110Z,24.61
2016-06-22T04:36:36.511Z,24.69
2016-06-22T04:37:36.529Z,24.67
2016-06-22T04:38:36.539Z,24.66
2016-06-22T04:39:37.146Z,24.61
2016-06-22T04:40:37.171Z,24.7
2016-06-22T04:41:37.791Z,24.77
2016-06-22T04:42:36.586Z,24.69
2016-06-22T04:43:36.580Z,24.64
2016-06-22T04:44:37.202Z,24.69
2016-06-22T04:45:37.205Z,24.7
2016-06-22T04:46:37.212Z,24.67
2016-06-22T04:47:36.625Z,24.7
2016-06-22T04:48:37.245Z,24.75
2016-06-22T04:49:36.643Z,24.71
2016-06-22T04:50:36.662Z,24.69
2016-06-22T04:51:37.865Z,24.64
2016-06-22T04:52:37.274Z,24.61
2016-06-22T04:53:36.695Z,24.7
2016-06-22T04:54:37.303Z,24.71
2016-06-22T04:55:37.315Z,24.74
2016-06-22T04:56:37.930Z,24.66
2016-06-22T04:57:37.939Z,24.77
2016-06-22T04:58:37.343Z,24.77
2016-06-22T04:59:37.355Z,24.71
2016-06-22T05:00:37.964Z,24.75
2016-06-22T05:01:37.364Z,24.75
2016-06-22T05:02:37.376Z,24.8
2016-06-22T05:03:37.995Z,24.78
2016-06-22T05:04:37.410Z,24.74
2016-06-22T05:05:38.012Z,24.74
2016-06-22T05:06:38.071Z,24.71
2016-06-22T05:07:38.038Z,24.75
2016-06-22T05:08:36.842Z,24.7
2016-06-22T05:09:37.463Z,24.74
2016-06-22T05:10:37.470Z,24.83
2016-06-22T05:11:37.498Z,24.82
2016-06-22T05:12:37.527Z,24.78
2016-06-22T05:13:37.506Z,24.83
2016-06-22T05:14:37.511Z,24.82
2016-06-22T05:15:37.511Z,24.89
2016-06-22T05:16:38.133Z,24.77
2016-06-22T05:17:37.535Z,24.74
2016-06-22T05:18:36.948Z,24.8
2016-06-22T05:19:38.159Z,24.74
2016-06-22T05:20:37.802Z,24.74
2016-06-22T05:21:37.821Z,24.8
2016-06-22T05:22:37.592Z,24.78
2016-06-22T05:23:37.609Z,24.82
2016-06-22T05:24:37.617Z,24.77
2016-06-22T05:25:38.213Z,24.78
2016-06-22T05:26:37.643Z,24.8
2016-06-22T05:27:38.235Z,24.77
2016-06-22T05:28:37.652Z,24.75
2016-06-22T05:29:37.663Z,24.75
2016-06-22T05:30:37.072Z,24.78
2016-06-22T05:31:38.303Z,24.86
2016-06-22T05:32:37.699Z,24.75
2016-06-22T05:33:38.330Z,24.77
2016-06-22T05:34:37.714Z,24.8
2016-06-22T05:35:37.133Z,24.75
2016-06-22T05:36:37.737Z,24.75
2016-06-22T05:37:37.154Z,24.8
2016-06-22T05:38:37.761Z,24.8
2016-06-22T05:39:37.757Z,24.85
2016-06-22T05:40:37.189Z,24.86
2016-06-22T05:41:37.198Z,24.78
2016-06-22T05:42:37.797Z,24.85
2016-06-22T05:43:37.820Z,24.85
2016-06-22T05:44:37.854Z,24.82
2016-06-22T05:45:37.840Z,24.78
2016-06-22T05:46:37.249Z,24.78
2016-06-22T05:47:37.845Z,24.86
2016-06-22T05:48:38.478Z,24.77
2016-06-22T05:49:37.879Z,24.89
2016-06-22T05:50:37.907Z,24.82
2016-06-22T05:51:37.290Z,24.82
2016-06-22T05:52:37.938Z,24.85
2016-06-22T05:53:37.914Z,24.82
2016-06-22T05:54:38.539Z,24.89
2016-06-22T05:55:38.530Z,24.87
2016-06-22T05:56:37.939Z,24.82
2016-06-22T05:57:37.961Z,24.8
2016-06-22T05:58:37.971Z,24.77
2016-06-22T05:59:37.982Z,24.8
2016-06-22T06:00:37.982Z,24.87
2016-06-22T06:01:37.999Z,24.92
2016-06-22T06:02:37.416Z,24.78
2016-06-22T06:03:38.012Z,24.89
2016-06-22T06:04:38.631Z,24.89
2016-06-22T06:05:37.445Z,24.93
2016-06-22T06:06:38.043Z,24.93
2016-06-22T06:07:38.681Z,24.96
2016-06-22T06:08:37.481Z,24.92
2016-06-22T06:09:38.081Z,24.89
2016-06-22T06:10:38.732Z,24.94
2016-06-22T06:11:38.118Z,24.89
2016-06-22T06:12:38.111Z,24.96
2016-06-22T06:13:37.534Z,24.92
2016-06-22T06:14:38.133Z,24.94
2016-06-22T06:15:38.146Z,24.96
2016-06-22T06:16:37.572Z,24.97
2016-06-22T06:17:38.163Z,24.87
2016-06-22T06:18:38.188Z,25.01
2016-06-22T06:19:37.597Z,24.93
2016-06-22T06:20:38.200Z,24.92
2016-06-22T06:21:37.622Z,24.89
2016-06-22T06:22:38.218Z,24.92
2016-06-22T06:23:37.630Z,24.96
2016-06-22T06:24:37.656Z,24.94
2016-06-22T06:25:37.654Z,24.94
2016-06-22T06:26:37.660Z,24.97
2016-06-22T06:27:38.893Z,25.01
2016-06-22T06:28:38.335Z,24.92
2016-06-22T06:29:37.704Z,24.96
2016-06-22T06:30:38.927Z,25.02
2016-06-22T06:31:37.702Z,25.04
2016-06-22T06:32:38.924Z,25.02
2016-06-22T06:33:38.929Z,25.09
2016-06-22T06:34:38.942Z,25.01
2016-06-22T06:35:38.962Z,25
2016-06-22T06:36:38.369Z,25.02
2016-06-22T06:37:38.383Z,25.05
2016-06-22T06:38:37.793Z,25.02
2016-06-22T06:39:37.802Z,25.07
2016-06-22T06:40:39.011Z,25.07
2016-06-22T06:41:37.819Z,25.11
2016-06-22T06:42:37.827Z,25.05
2016-06-22T06:43:38.436Z,25.02
2016-06-22T06:44:37.852Z,25.09
2016-06-22T06:45:38.460Z,25.05
2016-06-22T06:46:38.505Z,25.11
2016-06-22T06:47:38.479Z,25.08
2016-06-22T06:48:38.495Z,25.09
2016-06-22T06:49:39.103Z,25.05
2016-06-22T06:50:38.514Z,25.09
2016-06-22T06:51:38.524Z,25.05
2016-06-22T06:52:37.927Z,25.22
2016-06-22T06:53:39.145Z,25.19
2016-06-22T06:54:39.147Z,25.08
2016-06-22T06:55:38.578Z,25.19
2016-06-22T06:56:37.980Z,25.11
2016-06-22T06:57:38.596Z,25.12
2016-06-22T06:58:38.599Z,25.12
2016-06-22T06:59:39.221Z,25.22
2016-06-22T07:00:38.619Z,25.11
2016-06-22T07:01:39.224Z,25.11
2016-06-22T07:02:38.655Z,25.12
2016-06-22T07:03:39.474Z,25.14
2016-06-22T07:04:38.665Z,25.17
2016-06-22T07:05:38.079Z,25.15
2016-06-22T07:06:38.677Z,25.14
2016-06-22T07:07:38.690Z,25.14
2016-06-22T07:08:38.105Z,25.17
2016-06-22T07:09:38.717Z,25.23
2016-06-22T07:10:38.744Z,25.19
2016-06-22T07:11:39.323Z,25.2
2016-06-22T07:12:38.745Z,25.2
2016-06-22T07:13:38.749Z,25.23
2016-06-22T07:14:38.193Z,25.15
2016-06-22T07:15:38.777Z,25.19
2016-06-22T07:16:39.376Z,25.14
2016-06-22T07:17:38.800Z,25.12
2016-06-22T07:18:39.400Z,25.19
2016-06-22T07:19:39.405Z,25.11
2016-06-22T07:20:39.433Z,25.2
2016-06-22T07:21:39.111Z,25.26
2016-06-22T07:22:39.452Z,25.23
2016-06-22T07:23:38.861Z,25.15
2016-06-22T07:24:38.898Z,25.19
2016-06-22T07:25:40.655Z,25.2
2016-06-22T07:26:39.491Z,25.19
2016-06-22T07:27:38.975Z,25.17
2016-06-22T07:28:38.319Z,25.19
2016-06-22T07:29:38.326Z,25.22
2016-06-22T07:30:38.414Z,25.22
2016-06-22T07:31:38.974Z,25.19
2016-06-22T07:32:39.223Z,25.2
2016-06-22T07:33:38.446Z,25.22
2016-06-22T07:34:39.092Z,25.22
2016-06-22T07:35:39.103Z,25.2
2016-06-22T07:36:39.588Z,25.22
2016-06-22T07:37:38.525Z,25.26
2016-06-22T07:38:39.626Z,25.23
2016-06-22T07:39:39.132Z,25.24
2016-06-22T07:40:39.844Z,25.32
2016-06-22T07:41:39.057Z,25.34
2016-06-22T07:42:39.065Z,25.26
2016-06-22T07:43:38.480Z,25.24
2016-06-22T07:44:39.699Z,25.27
2016-06-22T07:45:39.375Z,25.26
2016-06-22T07:46:39.102Z,25.3
2016-06-22T07:47:39.711Z,25.24
2016-06-22T07:48:39.136Z,25.23
2016-06-22T07:49:39.141Z,25.2
2016-06-22T07:50:38.547Z,25.24
2016-06-22T07:51:39.750Z,25.17
2016-06-22T07:52:39.175Z,25.24
2016-06-22T07:53:39.181Z,25.23
2016-06-22T07:54:39.186Z,25.27
2016-06-22T07:55:39.213Z,25.33
2016-06-22T07:56:39.804Z,25.27
2016-06-22T07:57:39.816Z,25.26
2016-06-22T07:58:39.236Z,25.34
2016-06-22T07:59:39.841Z,25.33
2016-06-22T08:00:39.846Z,25.32
2016-06-22T08:01:38.654Z,25.33
2016-06-22T08:02:39.281Z,25.3
2016-06-22T08:03:38.669Z,25.3
2016-06-22T08:04:38.698Z,25.34
2016-06-22T08:05:38.708Z,25.3
2016-06-22T08:06:38.723Z,25.3
2016-06-22T08:07:39.318Z,25.32
2016-06-22T08:08:39.349Z,25.24
2016-06-22T08:09:39.945Z,25.3
2016-06-22T08:10:39.360Z,25.3
2016-06-22T08:11:39.367Z,25.33
2016-06-22T08:12:39.390Z,25.33
2016-06-22T08:13:38.788Z,25.39
2016-06-22T08:14:40.005Z,25.38
2016-06-22T08:15:40.024Z,25.37
2016-06-22T08:16:39.446Z,25.37
2016-06-22T08:17:40.050Z,25.38
2016-06-22T08:18:38.821Z,25.44
2016-06-22T08:19:38.877Z,25.39
2016-06-22T08:20:39.462Z,25.33
2016-06-22T08:21:39.463Z,25.38
2016-06-22T08:22:39.485Z,25.38
2016-06-22T08:23:40.099Z,25.3
2016-06-22T08:24:39.501Z,25.39
2016-06-22T08:25:39.511Z,25.45
2016-06-22T08:26:39.539Z,25.34
2016-06-22T08:27:40.119Z,25.38
2016-06-22T08:28:39.569Z,25.32
2016-06-22T08:29:39.556Z,25.37
2016-06-22T08:30:38.978Z,25.38
2016-06-22T08:31:39.579Z,25.39
2016-06-22T08:32:39.583Z,25.32
2016-06-22T08:33:39.604Z,25.37
2016-06-22T08:34:39.611Z,25.39
2016-06-22T08:35:39.009Z,25.39
2016-06-22T08:36:40.226Z,25.42
2016-06-22T08:37:40.253Z,25.45
2016-06-22T08:38:39.044Z,25.44
2016-06-22T08:39:39.653Z,25.45
2016-06-22T08:40:39.683Z,25.42
2016-06-22T08:41:39.079Z,25.48
2016-06-22T08:42:39.701Z,25.42
2016-06-22T08:43:40.302Z,25.44
2016-06-22T08:44:40.307Z,25.49
2016-06-22T08:45:39.729Z,25.49
2016-06-22T08:46:39.123Z,25.45
2016-06-22T08:47:39.735Z,25.51
2016-06-22T08:48:40.349Z,25.45
2016-06-22T08:49:40.360Z,25.39
2016-06-22T08:50:39.167Z,25.49
2016-06-22T08:51:39.764Z,25.6
2016-06-22T08:52:40.390Z,25.56
2016-06-22T08:53:39.791Z,25.56
2016-06-22T08:54:39.220Z,25.54
2016-06-22T08:55:39.222Z,25.57
2016-06-22T08:56:39.237Z,25.57
2016-06-22T08:57:39.847Z,25.59
2016-06-22T08:58:40.461Z,25.6
2016-06-22T08:59:39.865Z,25.57
2016-06-22T09:00:39.885Z,25.51
2016-06-22T09:01:40.495Z,25.64
2016-06-22T09:02:39.895Z,25.64
2016-06-22T09:03:39.906Z,25.71
2016-06-22T09:04:39.924Z,25.67
2016-06-22T09:05:39.574Z,25.66
2016-06-22T09:06:39.934Z,25.75
2016-06-22T09:07:40.550Z,25.74
2016-06-22T09:08:39.966Z,25.67
2016-06-22T09:09:39.374Z,25.7
2016-06-22T09:10:39.978Z,25.63
2016-06-22T09:11:40.591Z,25.66
2016-06-22T09:12:40.595Z,25.75
2016-06-22T09:13:40.618Z,25.76
2016-06-22T09:14:40.021Z,25.71
2016-06-22T09:15:39.455Z,25.76
2016-06-22T09:16:39.460Z,25.74
2016-06-22T09:17:40.058Z,25.75
2016-06-22T09:18:40.670Z,25.74
2016-06-22T09:19:40.087Z,25.74
2016-06-22T09:20:39.495Z,25.71
2016-06-22T09:21:40.695Z,25.69
2016-06-22T09:22:39.500Z,25.69
2016-06-22T09:23:40.709Z,25.66
2016-06-22T09:24:40.126Z,25.66
2016-06-22T09:25:40.137Z,25.74
2016-06-22T09:26:39.559Z,25.64
2016-06-22T09:27:40.159Z,25.71
2016-06-22T09:28:39.571Z,25.79
2016-06-22T09:29:40.767Z,25.76
2016-06-22T09:30:40.776Z,25.84
2016-06-22T09:31:40.193Z,25.84
2016-06-22T09:32:39.628Z,25.78
2016-06-22T09:33:40.815Z,25.79
2016-06-22T09:34:40.231Z,25.88
2016-06-22T09:35:40.246Z,25.82
2016-06-22T09:36:40.845Z,25.79
2016-06-22T09:37:40.248Z,25.79
2016-06-22T09:38:40.268Z,25.79
2016-06-22T09:39:39.687Z,25.84
2016-06-22T09:40:40.891Z,25.82
2016-06-22T09:41:40.303Z,25.82
2016-06-22T09:42:39.712Z,25.93
2016-06-22T09:43:40.328Z,25.82
2016-06-22T09:44:40.349Z,25.81
2016-06-22T09:45:40.931Z,25.82
2016-06-22T09:46:39.773Z,25.82
2016-06-22T09:47:40.371Z,25.75
2016-06-22T09:48:40.966Z,25.84
2016-06-22T09:49:39.797Z,25.79
2016-06-22T09:50:40.997Z,25.7
2016-06-22T09:51:40.402Z,25.82
2016-06-22T09:52:41.020Z,25.86
2016-06-22T09:53:40.436Z,25.85
2016-06-22T09:54:41.036Z,25.79
2016-06-22T09:55:40.461Z,25.88
2016-06-22T09:56:40.438Z,25.91
2016-06-22T09:57:39.861Z,25.94
2016-06-22T09:58:39.871Z,25.97
2016-06-22T09:59:39.873Z,25.94
2016-06-22T10:00:41.095Z,26
2016-06-22T10:01:40.495Z,25.99
2016-06-22T10:02:40.506Z,26.03
2016-06-22T10:03:40.525Z,26.04
2016-06-22T10:04:41.130Z,26.11
2016-06-22T10:05:40.534Z,26.01
2016-06-22T10:06:39.955Z,25.99
2016-06-22T10:07:40.568Z,25.96
2016-06-22T10:08:40.562Z,25.96
2016-06-22T10:09:41.171Z,25.96
2016-06-22T10:10:40.602Z,25.94
2016-06-22T10:11:40.709Z,25.96
2016-06-22T10:12:40.607Z,25.94
2016-06-22T10:13:40.617Z,25.99
2016-06-22T10:14:40.630Z,26
2016-06-22T10:15:40.642Z,25.93
2016-06-22T10:16:40.651Z,25.94
2016-06-22T10:17:40.655Z,26.04
2016-06-22T10:18:41.278Z,26.07
2016-06-22T10:19:41.289Z,26.09
2016-06-22T10:20:40.098Z,26.12
2016-06-22T10:21:40.706Z,26.19
2016-06-22T10:22:40.716Z,26.09
2016-06-22T10:23:41.325Z,26.11
2016-06-22T10:24:40.732Z,26.07
2016-06-22T10:25:40.738Z,26.12
2016-06-22T10:26:40.756Z,26.11
2016-06-22T10:27:40.167Z,26.06
2016-06-22T10:28:41.381Z,26.04
2016-06-22T10:29:40.790Z,26.11
2016-06-22T10:30:40.192Z,26.12
2016-06-22T10:31:41.395Z,26.06
2016-06-22T10:32:41.411Z,26.11
2016-06-22T10:33:41.449Z,26.19
2016-06-22T10:34:40.843Z,26.22
2016-06-22T10:35:40.846Z,26.19
2016-06-22T10:36:40.839Z,26.09
2016-06-22T10:37:40.871Z,26.04
2016-06-22T10:38:41.477Z,26.17
2016-06-22T10:39:41.481Z,26.15
2016-06-22T10:40:41.507Z,26.22
2016-06-22T10:41:41.501Z,26.12
2016-06-22T10:42:40.919Z,26.23
2016-06-22T10:43:40.921Z,26.23
2016-06-22T10:44:41.535Z,26.2
2016-06-22T10:45:41.546Z,26.23
2016-06-22T10:46:40.390Z,26.23
2016-06-22T10:47:40.965Z,26.22
2016-06-22T10:48:40.999Z,26.26
2016-06-22T10:49:40.407Z,26.26
2016-06-22T10:50:41.614Z,26.24
2016-06-22T10:51:41.615Z,26.26
2016-06-22T10:52:41.613Z,26.37
2016-06-22T10:53:41.640Z,26.24
2016-06-22T10:54:41.641Z,26.26
2016-06-22T10:55:41.057Z,26.35
2016-06-22T10:56:41.677Z,26.37
2016-06-22T10:57:41.077Z,26.38
2016-06-22T10:58:40.494Z,26.35
2016-06-22T10:59:40.490Z,26.38
2016-06-22T11:00:41.706Z,26.47
2016-06-22T11:01:41.706Z,26.39
2016-06-22T11:02:41.119Z,26.42
2016-06-22T11:03:41.728Z,26.42
2016-06-22T11:04:41.752Z,26.42
2016-06-22T11:05:41.172Z,26.42
2016-06-22T11:06:41.813Z,26.45
2016-06-22T11:07:41.181Z,26.41
2016-06-22T11:08:41.204Z,26.49
2016-06-22T11:09:41.810Z,26.5
2016-06-22T11:10:41.822Z,26.52
2016-06-22T11:11:40.679Z,26.54
2016-06-22T11:12:41.214Z,26.54
2016-06-22T11:13:41.257Z,26.54
2016-06-22T11:14:40.649Z,26.56
2016-06-22T11:15:41.264Z,26.61
2016-06-22T11:17:42.234Z,26.6
2016-06-22T11:18:41.291Z,26.57
2016-06-22T11:19:41.312Z,26.63
2016-06-22T11:20:41.914Z,26.56
2016-06-22T11:21:41.913Z,26.63
2016-06-22T11:22:40.741Z,26.68
2016-06-22T11:23:41.338Z,26.69
2016-06-22T11:24:41.351Z,26.76
2016-06-22T11:25:41.958Z,26.69
2016-06-22T11:26:41.371Z,26.68
2016-06-22T11:27:41.387Z,26.75
2016-06-22T11:28:41.406Z,26.75
2016-06-22T11:29:42.004Z,26.76
2016-06-22T11:30:41.422Z,26.76
2016-06-22T11:31:42.020Z,26.76
2016-06-22T11:32:42.055Z,26.82
2016-06-22T11:33:40.851Z,26.75
2016-06-22T11:34:42.060Z,26.72
2016-06-22T11:35:41.487Z,26.86
2016-06-22T11:36:42.102Z,26.86
2016-06-22T11:37:40.890Z,26.84
2016-06-22T11:38:42.094Z,26.74
2016-06-22T11:39:41.504Z,26.78
2016-06-22T11:40:41.515Z,26.78
2016-06-22T11:41:42.131Z,26.81
2016-06-22T11:42:41.579Z,26.69
2016-06-22T11:43:42.158Z,26.84
2016-06-22T11:44:41.552Z,26.81
2016-06-22T11:45:42.184Z,26.81
2016-06-22T11:46:41.588Z,26.75
2016-06-22T11:47:42.193Z,26.78
2016-06-22T11:48:42.206Z,26.82
2016-06-22T11:49:42.236Z,26.86
2016-06-22T11:50:42.215Z,26.87
2016-06-22T11:51:41.637Z,26.94
2016-06-22T11:52:41.046Z,26.86
2016-06-22T11:53:41.666Z,26.87
2016-06-22T11:54:42.264Z,26.82
2016-06-22T11:55:41.087Z,26.86
2016-06-22T11:56:41.689Z,26.84
2016-06-22T11:57:41.717Z,26.91
2016-06-22T11:58:42.309Z,26.86
2016-06-22T11:59:41.723Z,26.91
2016-06-22T12:00:42.332Z,26.87
2016-06-22T12:01:41.745Z,26.86
2016-06-22T12:02:41.142Z,26.91
2016-06-22T12:03:41.774Z,26.78
2016-06-22T12:04:41.790Z,26.81
2016-06-22T12:05:42.391Z,26.93
2016-06-22T12:06:42.426Z,26.84
2016-06-22T12:07:42.405Z,26.81
2016-06-22T12:08:41.223Z,26.87
2016-06-22T12:09:41.228Z,26.96
2016-06-22T12:10:41.840Z,26.87
2016-06-22T12:11:42.006Z,26.93
2016-06-22T12:12:41.867Z,26.86
2016-06-22T12:13:41.886Z,26.94
2016-06-22T12:14:41.877Z,26.99
2016-06-22T12:15:41.902Z,27.05
2016-06-22T12:16:41.905Z,27.06
2016-06-22T12:17:41.332Z,26.99
2016-06-22T12:18:42.522Z,27.01
2016-06-22T12:19:41.935Z,27
2016-06-22T12:20:41.938Z,27.09
2016-06-22T12:21:41.351Z,27.04
2016-06-22T12:22:41.359Z,27.12
2016-06-22T12:23:41.418Z,27.09
2016-06-22T12:24:42.596Z,27.18
2016-06-22T12:25:42.007Z,27.12
2016-06-22T12:26:42.612Z,27.15
2016-06-22T12:27:41.434Z,27.19
2016-06-22T12:28:42.051Z,27.21
2016-06-22T12:29:42.035Z,27.19
2016-06-22T12:30:42.059Z,27.12
2016-06-22T12:31:42.671Z,27.11
2016-06-22T12:32:42.668Z,27.08
2016-06-22T12:33:42.091Z,27.01
2016-06-22T12:34:41.480Z,27.08
2016-06-22T12:35:42.093Z,27.11
2016-06-22T12:36:42.129Z,27.13
2016-06-22T12:37:42.138Z,27.13
2016-06-22T12:38:42.723Z,27.12
2016-06-22T12:39:42.749Z,27.01
2016-06-22T12:40:42.153Z,27.05
2016-06-22T12:41:42.762Z,27.05
2016-06-22T12:42:42.762Z,27
2016-06-22T12:43:41.604Z,26.96
2016-06-22T12:44:42.213Z,26.94
2016-06-22T12:45:42.814Z,27.01
2016-06-22T12:46:42.216Z,26.97
2016-06-22T12:47:42.258Z,27.06
2016-06-22T12:48:41.652Z,27.06
2016-06-22T12:49:42.256Z,27.09
2016-06-22T12:50:42.254Z,27.08
2016-06-22T12:51:42.850Z,27.18
2016-06-22T12:52:42.321Z,27.21
2016-06-22T12:53:41.714Z,27.24
2016-06-22T12:54:41.712Z,27.21
2016-06-22T12:55:41.710Z,27.26